createdAt,value
2023-04-17T00:00:11.586Z,28.20
2023-04-17T00:01:11.567Z,30.10
2023-04-17T00:02:11.583Z,30.30
2023-04-17T00:03:11.698Z,28.60
2023-04-17T00:04:11.929Z,30.00
2023-04-17T00:05:11.603Z,31.40
2023-04-17T00:06:11.520Z,29.60
2023-04-17T00:07:11.530Z,30.70
2023-04-17T00:08:12.254Z,30.00
2023-04-17T00:09:11.804Z,34.10
2023-04-17T00:10:11.480Z,30.70
2023-04-17T00:11:11.473Z,29.50
2023-04-17T00:12:11.480Z,31.00
2023-04-17T00:13:11.435Z,29.20
2023-04-17T00:14:11.433Z,29.70
2023-04-17T00:15:11.410Z,31.40
2023-04-17T00:16:11.501Z,30.30
2023-04-17T00:17:11.415Z,30.10
2023-04-17T00:18:12.405Z,30.70
2023-04-17T00:19:12.076Z,30.60
2023-04-17T00:20:11.360Z,30.10
2023-04-17T00:21:11.372Z,33.50
2023-04-17T00:22:11.357Z,27.20
2023-04-17T00:23:11.348Z,33.60
2023-04-17T00:24:11.313Z,28.70
2023-04-17T00:25:11.317Z,29.10
2023-04-17T00:26:11.345Z,30.10
2023-04-17T00:27:11.302Z,30.00
2023-04-17T00:28:11.257Z,30.00
2023-04-17T00:29:12.774Z,29.20
2023-04-17T00:30:11.255Z,31.00
2023-04-17T00:31:11.238Z,28.30
2023-04-17T00:32:11.346Z,29.30
2023-04-17T00:33:11.211Z,28.00
2023-04-17T00:34:11.204Z,29.10
2023-04-17T00:35:11.216Z,31.40
2023-04-17T00:36:11.194Z,29.80
2023-04-17T00:37:11.169Z,30.30
2023-04-17T00:38:11.183Z,29.40
2023-04-17T00:39:11.467Z,27.40
2023-04-17T00:40:11.167Z,29.30
2023-04-17T00:41:11.137Z,28.00
2023-04-17T00:42:11.598Z,28.60
2023-04-17T00:43:11.114Z,31.20
2023-04-17T00:44:11.104Z,30.50
2023-04-17T00:45:11.115Z,31.60
2023-04-17T00:46:11.146Z,28.10
2023-04-17T00:47:11.067Z,29.70
2023-04-17T00:48:11.079Z,28.90
2023-04-17T00:49:11.696Z,27.40
2023-04-17T00:50:11.057Z,30.70
2023-04-17T00:51:11.020Z,29.90
2023-04-17T00:52:11.053Z,29.50
2023-04-17T00:53:10.997Z,30.20
2023-04-17T00:54:11.001Z,29.80
2023-04-17T00:55:10.977Z,31.50
2023-04-17T00:56:10.958Z,31.40
2023-04-17T00:57:10.948Z,29.80
2023-04-17T00:58:10.940Z,28.80
2023-04-17T00:59:11.229Z,31.40
2023-04-17T01:00:11.995Z,30.70
2023-04-17T01:01:10.928Z,30.80
2023-04-17T01:02:10.975Z,31.50
2023-04-17T01:03:10.976Z,33.40
2023-04-17T01:04:10.989Z,29.50
2023-04-17T01:05:11.846Z,29.50
2023-04-17T01:06:10.880Z,29.10
2023-04-17T01:07:10.829Z,30.60
2023-04-17T01:08:10.838Z,31.80
2023-04-17T01:09:10.993Z,29.70
2023-04-17T01:10:10.813Z,30.30
2023-04-17T01:11:10.801Z,30.20
2023-04-17T01:12:10.797Z,30.90
2023-04-17T01:13:10.765Z,30.10
2023-04-17T01:14:10.766Z,29.90
2023-04-17T01:15:10.761Z,28.50
2023-04-17T01:16:10.721Z,29.40
2023-04-17T01:17:10.831Z,31.50
2023-04-17T01:18:10.805Z,31.70
2023-04-17T01:19:10.893Z,30.20
2023-04-17T01:20:10.704Z,29.40
2023-04-17T01:21:10.676Z,29.80
2023-04-17T01:22:10.681Z,27.40
2023-04-17T01:23:10.698Z,29.30
2023-04-17T01:24:10.650Z,29.10
2023-04-17T01:25:10.648Z,27.00
2023-04-17T01:26:10.629Z,30.60
2023-04-17T01:27:10.603Z,30.30
2023-04-17T01:28:10.610Z,32.00
2023-04-17T01:29:11.825Z,28.80
2023-04-17T01:30:10.597Z,33.40
2023-04-17T01:31:10.581Z,28.30
2023-04-17T01:32:10.598Z,31.20
2023-04-17T01:33:10.541Z,30.30
2023-04-17T01:34:11.213Z,31.70
2023-04-17T01:35:10.566Z,30.60
2023-04-17T01:36:11.575Z,31.80
2023-04-17T01:37:10.537Z,32.00
2023-04-17T01:38:10.557Z,31.00
2023-04-17T01:39:11.630Z,31.10
2023-04-17T01:40:10.453Z,29.80
2023-04-17T01:41:10.502Z,31.40
2023-04-17T01:42:10.443Z,29.00
2023-04-17T01:43:10.719Z,31.80
2023-04-17T01:44:10.412Z,31.60
2023-04-17T01:45:10.412Z,32.40
2023-04-17T01:46:10.631Z,30.10
2023-04-17T01:47:10.403Z,32.60
2023-04-17T01:48:10.365Z,33.10
2023-04-17T01:49:10.608Z,28.90
2023-04-17T01:50:11.247Z,28.10
2023-04-17T01:51:10.360Z,32.60
2023-04-17T01:52:10.324Z,28.70
2023-04-17T01:53:10.339Z,31.90
2023-04-17T01:54:10.316Z,32.60
2023-04-17T01:55:10.305Z,31.20
2023-04-17T01:56:10.379Z,31.40
2023-04-17T01:57:11.238Z,32.10
2023-04-17T01:58:10.307Z,32.30
2023-04-17T01:59:10.530Z,31.90
2023-04-17T02:00:11.223Z,33.50
2023-04-17T02:01:10.278Z,31.00
2023-04-17T02:02:11.330Z,32.10
2023-04-17T02:03:10.319Z,32.50
2023-04-17T02:04:10.346Z,36.00
2023-04-17T02:05:10.202Z,30.60
2023-04-17T02:06:10.383Z,32.70
2023-04-17T02:07:10.162Z,33.10
2023-04-17T02:08:10.223Z,33.60
2023-04-17T02:09:10.522Z,34.00
2023-04-17T02:10:10.127Z,32.10
2023-04-17T02:11:10.173Z,33.50
2023-04-17T02:12:10.103Z,34.90
2023-04-17T02:13:10.121Z,31.20
2023-04-17T02:14:10.142Z,34.90
2023-04-17T02:15:10.097Z,33.30
2023-04-17T02:16:10.076Z,33.30
2023-04-17T02:17:10.062Z,33.90
2023-04-17T02:18:10.189Z,35.60
2023-04-17T02:19:10.419Z,33.90
2023-04-17T02:20:10.930Z,34.60
2023-04-17T02:21:10.002Z,34.00
2023-04-17T02:22:09.995Z,32.50
2023-04-17T02:23:09.987Z,33.10
2023-04-17T02:24:09.969Z,33.90
2023-04-17T02:25:10.268Z,32.40
2023-04-17T02:26:09.955Z,35.10
2023-04-17T02:27:09.944Z,33.70
2023-04-17T02:28:10.485Z,32.40
2023-04-17T02:29:11.137Z,32.70
2023-04-17T02:30:09.906Z,33.60
2023-04-17T02:31:10.317Z,35.50
2023-04-17T02:32:09.911Z,35.80
2023-04-17T02:33:09.913Z,35.70
2023-04-17T02:34:10.832Z,32.90
2023-04-17T02:35:09.860Z,39.50
2023-04-17T02:36:09.836Z,35.20
2023-04-17T02:37:09.826Z,36.90
2023-04-17T02:38:09.812Z,35.50
2023-04-17T02:39:11.477Z,33.70
2023-04-17T02:40:11.245Z,34.80
2023-04-17T02:41:10.800Z,37.30
2023-04-17T02:42:09.924Z,35.70
2023-04-17T02:43:11.318Z,35.40
2023-04-17T02:44:09.785Z,34.80
2023-04-17T02:45:09.830Z,39.30
2023-04-17T02:46:09.761Z,36.40
2023-04-17T02:47:10.609Z,38.40
2023-04-17T02:48:10.670Z,36.80
2023-04-17T02:49:09.941Z,37.80
2023-04-17T02:50:11.157Z,32.80
2023-04-17T02:51:09.835Z,35.90
2023-04-17T02:52:10.631Z,33.30
2023-04-17T02:53:09.651Z,36.20
2023-04-17T02:54:11.091Z,35.70
2023-04-17T02:55:10.228Z,36.60
2023-04-17T02:56:09.779Z,35.90
2023-04-17T02:57:11.075Z,37.10
2023-04-17T02:58:09.596Z,36.50
2023-04-17T02:59:10.777Z,35.50
2023-04-17T03:00:09.571Z,37.30
2023-04-17T03:01:09.613Z,37.40
2023-04-17T03:02:10.585Z,37.00
2023-04-17T03:03:11.182Z,34.20
2023-04-17T03:04:09.602Z,38.20
2023-04-17T03:05:10.384Z,37.00
2023-04-17T03:06:09.505Z,38.70
2023-04-17T03:07:09.503Z,35.80
2023-04-17T03:08:09.691Z,34.80
2023-04-17T03:09:09.620Z,40.50
2023-04-17T03:10:09.524Z,35.90
2023-04-17T03:11:10.437Z,35.70
2023-04-17T03:12:09.464Z,34.80
2023-04-17T03:13:10.247Z,39.10
2023-04-17T03:14:09.453Z,36.30
2023-04-17T03:15:09.420Z,36.10
2023-04-17T03:16:09.539Z,37.20
2023-04-17T03:17:09.376Z,35.20
2023-04-17T03:18:09.371Z,37.90
2023-04-17T03:19:09.521Z,35.10
2023-04-17T03:20:10.132Z,41.20
2023-04-17T03:21:09.372Z,34.60
2023-04-17T03:22:10.047Z,39.50
2023-04-17T03:23:09.365Z,36.90
2023-04-17T03:24:09.330Z,36.10
2023-04-17T03:25:09.301Z,38.30
2023-04-17T03:26:09.424Z,40.20
2023-04-17T03:27:09.713Z,37.30
2023-04-17T03:28:09.260Z,38.10
2023-04-17T03:29:09.550Z,37.10
2023-04-17T03:30:14.495Z,38.70
2023-04-17T03:31:09.243Z,37.50
2023-04-17T03:32:09.378Z,36.50
2023-04-17T03:33:09.208Z,36.80
2023-04-17T03:34:09.243Z,38.90
2023-04-17T03:35:09.217Z,38.00
2023-04-17T03:36:09.210Z,37.30
2023-04-17T03:37:09.265Z,38.00
2023-04-17T03:38:09.363Z,36.00
2023-04-17T03:39:10.573Z,40.90
2023-04-17T03:40:09.345Z,37.30
2023-04-17T03:41:10.578Z,35.80
2023-04-17T03:42:09.299Z,39.10
2023-04-17T03:43:09.094Z,37.90
2023-04-17T03:44:09.117Z,39.00
2023-04-17T03:45:09.091Z,36.90
2023-04-17T03:46:09.132Z,38.10
2023-04-17T03:47:09.055Z,38.20
2023-04-17T03:48:16.854Z,35.60
2023-04-17T03:49:09.172Z,38.70
2023-04-17T03:50:09.069Z,39.20
2023-04-17T03:51:09.050Z,39.20
2023-04-17T03:52:08.992Z,39.80
2023-04-17T03:53:08.996Z,37.40
2023-04-17T03:54:09.073Z,37.40
2023-04-17T03:55:10.498Z,38.00
2023-04-17T03:56:08.948Z,37.10
2023-04-17T03:57:08.955Z,39.80
2023-04-17T03:58:08.936Z,40.20
2023-04-17T03:59:08.954Z,39.10
2023-04-17T04:00:09.009Z,38.90
2023-04-17T04:01:08.914Z,40.40
2023-04-17T04:02:08.945Z,39.30
2023-04-17T04:03:10.521Z,37.80
2023-04-17T04:04:09.005Z,39.10
2023-04-17T04:05:08.886Z,37.20
2023-04-17T04:06:08.858Z,39.80
2023-04-17T04:07:08.833Z,38.40
2023-04-17T04:08:08.815Z,38.10
2023-04-17T04:09:09.879Z,39.30
2023-04-17T04:10:08.828Z,39.60
2023-04-17T04:11:08.790Z,43.80
2023-04-17T04:12:08.803Z,41.10
2023-04-17T04:13:08.788Z,39.70
2023-04-17T04:14:10.290Z,37.10
2023-04-17T04:15:08.746Z,39.50
2023-04-17T04:16:10.309Z,39.60
2023-04-17T04:17:08.768Z,43.10
2023-04-17T04:18:08.780Z,37.30
2023-04-17T04:19:08.734Z,39.20
2023-04-17T04:20:08.683Z,39.20
2023-04-17T04:21:08.696Z,43.50
2023-04-17T04:22:08.668Z,38.40
2023-04-17T04:23:08.698Z,40.40
2023-04-17T04:24:08.666Z,38.80
2023-04-17T04:25:09.595Z,41.90
2023-04-17T04:26:10.085Z,40.30
2023-04-17T04:27:08.612Z,41.00
2023-04-17T04:28:08.616Z,39.50
2023-04-17T04:29:08.615Z,37.80
2023-04-17T04:30:08.571Z,41.00
2023-04-17T04:31:08.586Z,43.20
2023-04-17T04:32:08.553Z,44.80
2023-04-17T04:33:08.621Z,40.70
2023-04-17T04:34:08.531Z,38.30
2023-04-17T04:35:08.553Z,39.40
2023-04-17T04:36:08.736Z,41.70
2023-04-17T04:37:08.506Z,41.50
2023-04-17T04:38:09.962Z,40.60
2023-04-17T04:39:08.502Z,41.60
2023-04-17T04:40:08.478Z,38.50
2023-04-17T04:41:08.516Z,40.90
2023-04-17T04:42:08.428Z,39.60
2023-04-17T04:43:08.423Z,41.60
2023-04-17T04:44:08.444Z,42.60
2023-04-17T04:45:08.402Z,39.00
2023-04-17T04:46:08.393Z,41.50
2023-04-17T04:47:08.554Z,44.70
2023-04-17T04:48:08.473Z,43.40
2023-04-17T04:49:08.360Z,44.20
2023-04-17T04:50:08.355Z,40.20
2023-04-17T04:51:08.338Z,45.70
2023-04-17T04:52:09.818Z,43.80
2023-04-17T04:53:08.541Z,42.50
2023-04-17T04:54:08.296Z,41.40
2023-04-17T04:55:08.281Z,41.80
2023-04-17T04:56:08.296Z,41.70
2023-04-17T04:57:08.289Z,37.70
2023-04-17T04:58:08.256Z,42.00
2023-04-17T04:59:08.261Z,39.90
2023-04-17T05:00:08.240Z,43.10
2023-04-17T05:01:08.443Z,39.80
2023-04-17T05:02:08.305Z,39.90
2023-04-17T05:03:08.475Z,44.20
2023-04-17T05:04:09.243Z,42.00
2023-04-17T05:05:08.362Z,40.40
2023-04-17T05:06:08.172Z,44.10
2023-04-17T05:07:08.181Z,39.20
2023-04-17T05:08:09.130Z,40.50
2023-04-17T05:09:08.141Z,41.00
2023-04-17T05:10:08.161Z,43.20
2023-04-17T05:11:08.105Z,40.90
2023-04-17T05:12:08.119Z,39.20
2023-04-17T05:13:08.104Z,40.30
2023-04-17T05:14:08.129Z,38.40
2023-04-17T05:15:08.083Z,39.90
2023-04-17T05:16:08.098Z,38.60
2023-04-17T05:17:09.070Z,40.70
2023-04-17T05:18:08.036Z,41.80
2023-04-17T05:19:08.016Z,39.90
2023-04-17T05:20:08.019Z,39.50
2023-04-17T05:21:08.010Z,40.10
2023-04-17T05:22:07.999Z,39.10
2023-04-17T05:23:08.023Z,41.30
2023-04-17T05:24:07.965Z,40.70
2023-04-17T05:25:07.966Z,38.40
2023-04-17T05:26:08.916Z,38.60
2023-04-17T05:27:08.048Z,38.70
2023-04-17T05:28:08.415Z,38.10
2023-04-17T05:29:07.937Z,38.40
2023-04-17T05:30:07.908Z,38.90
2023-04-17T05:31:07.927Z,36.80
2023-04-17T05:32:08.077Z,36.80
2023-04-17T05:33:09.009Z,40.90
2023-04-17T05:34:07.878Z,179.50
2023-04-17T05:35:07.861Z,184.90
2023-04-17T05:36:07.839Z,49.00
2023-04-17T05:37:07.833Z,56.00
2023-04-17T05:38:09.376Z,44.90
2023-04-17T05:39:07.825Z,40.60
2023-04-17T05:40:07.795Z,41.70
2023-04-17T05:41:07.781Z,38.20
2023-04-17T05:42:07.778Z,39.10
2023-04-17T05:43:07.782Z,38.50
2023-04-17T05:44:07.762Z,40.00
2023-04-17T05:45:07.763Z,38.40
2023-04-17T05:46:07.874Z,39.30
2023-04-17T05:47:07.711Z,39.60
2023-04-17T05:48:08.676Z,41.20
2023-04-17T05:49:07.758Z,42.10
2023-04-17T05:50:08.407Z,39.20
2023-04-17T05:51:07.699Z,36.80
2023-04-17T05:52:07.661Z,39.40
2023-04-17T05:53:07.688Z,36.80
2023-04-17T05:54:08.872Z,39.10
2023-04-17T05:55:07.637Z,40.30
2023-04-17T05:56:07.613Z,40.90
2023-04-17T05:57:07.674Z,40.40
2023-04-17T05:58:20.412Z,39.10
2023-04-17T05:59:08.625Z,40.40
2023-04-17T06:00:07.614Z,39.50
2023-04-17T06:01:07.571Z,42.80
2023-04-17T06:02:07.792Z,39.20
2023-04-17T06:03:07.914Z,40.50
2023-04-17T06:04:07.767Z,37.40
2023-04-17T06:05:07.871Z,41.50
2023-04-17T06:06:08.460Z,40.90
2023-04-17T06:07:07.526Z,37.90
2023-04-17T06:08:07.512Z,36.50
2023-04-17T06:09:08.510Z,37.30
2023-04-17T06:10:07.457Z,36.90
2023-04-17T06:11:07.477Z,36.70
2023-04-17T06:12:07.456Z,36.10
2023-04-17T06:13:07.450Z,38.30
2023-04-17T06:14:07.422Z,38.70
2023-04-17T06:15:08.102Z,37.70
2023-04-17T06:16:08.387Z,36.30
2023-04-17T06:17:07.676Z,35.30
2023-04-17T06:18:07.446Z,38.20
2023-04-17T06:19:07.391Z,37.20
2023-04-17T06:20:07.365Z,36.00
2023-04-17T06:21:07.368Z,36.50
2023-04-17T06:22:08.305Z,35.80
2023-04-17T06:23:07.351Z,36.30
2023-04-17T06:24:07.312Z,38.90
2023-04-17T06:25:07.293Z,35.70
2023-04-17T06:26:07.358Z,34.50
2023-04-17T06:27:07.287Z,41.00
2023-04-17T06:28:07.391Z,37.00
2023-04-17T06:29:07.258Z,36.30
2023-04-17T06:30:07.244Z,35.50
2023-04-17T06:31:07.319Z,33.70
2023-04-17T06:32:07.272Z,33.70
2023-04-17T06:33:07.449Z,36.40
2023-04-17T06:34:07.208Z,35.90
2023-04-17T06:35:07.193Z,35.10
2023-04-17T06:36:07.194Z,36.60
2023-04-17T06:37:07.194Z,38.40
2023-04-17T06:38:07.193Z,34.10
2023-04-17T06:39:07.140Z,36.00
2023-04-17T06:40:07.149Z,36.30
2023-04-17T06:41:07.121Z,35.30
2023-04-17T06:42:07.397Z,38.00
2023-04-17T06:43:07.143Z,36.40
2023-04-17T06:44:07.115Z,40.20
2023-04-17T06:45:07.489Z,33.20
2023-04-17T06:46:07.119Z,33.40
2023-04-17T06:47:07.899Z,36.10
2023-04-17T06:48:07.405Z,34.10
2023-04-17T06:49:07.056Z,33.80
2023-04-17T06:50:07.040Z,37.50
2023-04-17T06:51:07.008Z,33.70
2023-04-17T06:52:07.033Z,36.80
2023-04-17T06:53:07.958Z,34.50
2023-04-17T06:54:06.976Z,31.10
2023-04-17T06:55:07.393Z,33.90
2023-04-17T06:56:07.916Z,35.90
2023-04-17T06:57:06.975Z,32.70
2023-04-17T06:58:07.410Z,31.80
2023-04-17T06:59:06.927Z,32.00
2023-04-17T07:00:06.938Z,32.70
2023-04-17T07:01:06.917Z,33.30
2023-04-17T07:02:06.974Z,32.40
2023-04-17T07:03:07.014Z,32.10
2023-04-17T07:04:06.956Z,30.50
2023-04-17T07:05:06.869Z,33.30
2023-04-17T07:06:06.907Z,33.60
2023-04-17T07:07:06.869Z,33.40
2023-04-17T07:08:06.817Z,33.90
2023-04-17T07:09:06.843Z,30.70
2023-04-17T07:10:06.816Z,32.20
2023-04-17T07:11:06.829Z,33.50
2023-04-17T07:12:06.813Z,31.30
2023-04-17T07:13:06.811Z,32.50
2023-04-17T07:14:06.770Z,31.10
2023-04-17T07:15:06.808Z,31.40
2023-04-17T07:16:07.659Z,31.40
2023-04-17T07:17:06.731Z,33.90
2023-04-17T07:18:06.797Z,33.20
2023-04-17T07:19:06.741Z,32.50
2023-04-17T07:20:06.696Z,33.10
2023-04-17T07:21:06.711Z,35.60
2023-04-17T07:22:07.645Z,34.20
2023-04-17T07:23:06.725Z,35.50
2023-04-17T07:24:06.663Z,34.90
2023-04-17T07:25:07.516Z,35.50
2023-04-17T07:26:07.645Z,35.30
2023-04-17T07:27:06.623Z,36.80
2023-04-17T07:28:06.591Z,35.40
2023-04-17T07:29:06.629Z,37.20
2023-04-17T07:30:06.576Z,35.90
2023-04-17T07:31:06.611Z,33.90
2023-04-17T07:32:06.578Z,36.60
2023-04-17T07:33:06.601Z,36.60
2023-04-17T07:34:06.635Z,36.30
2023-04-17T07:35:06.546Z,36.20
2023-04-17T07:36:06.501Z,35.80
2023-04-17T07:37:06.604Z,37.30
2023-04-17T07:38:06.490Z,36.10
2023-04-17T07:39:06.523Z,33.60
2023-04-17T07:40:06.469Z,35.50
2023-04-17T07:41:06.476Z,35.60
2023-04-17T07:42:06.436Z,37.00
2023-04-17T07:43:06.467Z,35.90
2023-04-17T07:44:06.442Z,34.90
2023-04-17T07:45:06.433Z,34.90
2023-04-17T07:46:06.455Z,35.30
2023-04-17T07:47:06.513Z,33.00
2023-04-17T07:48:06.432Z,36.60
2023-04-17T07:49:06.368Z,34.40
2023-04-17T07:50:06.360Z,32.40
2023-04-17T07:51:06.337Z,35.30
2023-04-17T07:52:06.362Z,32.90
2023-04-17T07:53:06.338Z,34.00
2023-04-17T07:54:06.308Z,34.60
2023-04-17T07:55:06.286Z,34.10
2023-04-17T07:56:06.301Z,36.60
2023-04-17T07:57:06.302Z,34.00
2023-04-17T07:58:06.279Z,35.10
2023-04-17T07:59:06.260Z,34.60
2023-04-17T08:00:06.231Z,33.30
2023-04-17T08:01:06.214Z,34.40
2023-04-17T08:02:06.874Z,34.50
2023-04-17T08:03:06.546Z,31.60
2023-04-17T08:04:06.430Z,32.10
2023-04-17T08:05:06.460Z,34.40
2023-04-17T08:06:06.172Z,33.80
2023-04-17T08:07:06.159Z,34.10
2023-04-17T08:08:06.184Z,32.50
2023-04-17T08:09:06.169Z,31.00
2023-04-17T08:10:06.134Z,31.80
2023-04-17T08:11:06.113Z,34.00
2023-04-17T08:12:06.118Z,32.90
2023-04-17T08:13:06.109Z,33.90
2023-04-17T08:14:06.105Z,32.70
2023-04-17T08:15:06.305Z,33.10
2023-04-17T08:16:06.073Z,32.10
2023-04-17T08:17:06.122Z,34.30
2023-04-17T08:18:06.088Z,33.40
2023-04-17T08:19:06.033Z,33.30
2023-04-17T08:20:06.054Z,34.80
2023-04-17T08:21:06.023Z,33.20
2023-04-17T08:22:06.000Z,32.10
2023-04-17T08:23:06.024Z,32.70
2023-04-17T08:24:05.976Z,33.10
2023-04-17T08:25:05.963Z,32.10
2023-04-17T08:26:05.955Z,31.30
2023-04-17T08:27:05.946Z,32.00
2023-04-17T08:28:05.972Z,32.70
2023-04-17T08:29:05.970Z,30.80
2023-04-17T08:30:05.920Z,30.70
2023-04-17T08:31:05.944Z,31.40
2023-04-17T08:32:13.417Z,30.90
2023-04-17T08:33:06.896Z,32.40
2023-04-17T08:34:13.635Z,33.70
2023-04-17T08:35:06.854Z,31.20
2023-04-17T08:36:07.229Z,33.40
2023-04-17T08:37:05.847Z,36.60
2023-04-17T08:38:05.829Z,34.70
2023-04-17T08:39:05.800Z,35.50
2023-04-17T08:40:05.938Z,33.80
2023-04-17T08:41:05.817Z,34.50
2023-04-17T08:42:05.788Z,33.40
2023-04-17T08:43:07.294Z,33.60
2023-04-17T08:44:05.760Z,31.10
2023-04-17T08:45:05.756Z,30.60
2023-04-17T08:46:05.793Z,33.50
2023-04-17T08:47:05.745Z,34.30
2023-04-17T08:48:05.790Z,30.80
2023-04-17T08:49:05.704Z,34.20
2023-04-17T08:50:07.168Z,34.30
2023-04-17T08:51:05.976Z,32.00
2023-04-17T08:52:05.767Z,33.60
2023-04-17T08:53:05.693Z,33.80
2023-04-17T08:54:05.659Z,33.40
2023-04-17T08:55:05.637Z,32.50
2023-04-17T08:56:08.295Z,33.20
2023-04-17T08:57:05.650Z,35.80
2023-04-17T08:58:05.632Z,31.10
2023-04-17T08:59:05.671Z,30.70
2023-04-17T09:00:05.698Z,31.10
2023-04-17T09:01:05.583Z,30.50
2023-04-17T09:02:05.709Z,30.80
2023-04-17T09:03:07.507Z,31.80
2023-04-17T09:04:05.801Z,31.20
2023-04-17T09:05:06.563Z,31.20
2023-04-17T09:06:05.517Z,31.60
2023-04-17T09:07:05.496Z,29.70
2023-04-17T09:08:05.531Z,29.10
2023-04-17T09:09:05.509Z,29.20
2023-04-17T09:10:05.501Z,28.30
2023-04-17T09:11:05.444Z,31.10
2023-04-17T09:12:05.468Z,29.10
2023-04-17T09:13:05.444Z,30.40
2023-04-17T09:14:05.465Z,27.80
2023-04-17T09:15:05.423Z,27.90
2023-04-17T09:16:05.472Z,28.40
2023-04-17T09:17:05.590Z,30.10
2023-04-17T09:18:06.890Z,28.00
2023-04-17T09:19:06.081Z,26.80
2023-04-17T09:20:05.361Z,28.10
2023-04-17T09:21:05.360Z,27.70
2023-04-17T09:22:05.341Z,29.00
2023-04-17T09:23:05.344Z,29.40
2023-04-17T09:24:06.201Z,29.70
2023-04-17T09:25:05.342Z,29.00
2023-04-17T09:26:05.289Z,28.70
2023-04-17T09:27:05.320Z,28.50
2023-04-17T09:28:05.289Z,28.40
2023-04-17T09:29:05.735Z,32.40
2023-04-17T09:30:05.316Z,97.70
2023-04-17T09:31:05.307Z,35.40
2023-04-17T09:32:05.273Z,36.80
2023-04-17T09:33:05.222Z,26.10
2023-04-17T09:34:05.220Z,27.50
2023-04-17T09:35:05.276Z,25.70
2023-04-17T09:36:05.248Z,24.30
2023-04-17T09:37:05.200Z,25.10
2023-04-17T09:38:05.178Z,25.30
2023-04-17T09:39:05.194Z,24.00
2023-04-17T09:40:05.416Z,24.00
2023-04-17T09:41:05.128Z,24.10
2023-04-17T09:42:05.129Z,24.50
2023-04-17T09:43:08.165Z,23.50
2023-04-17T09:44:05.144Z,24.40
2023-04-17T09:45:05.090Z,24.30
2023-04-17T09:46:05.372Z,23.20
2023-04-17T09:47:05.209Z,21.90
2023-04-17T09:48:05.104Z,21.40
2023-04-17T09:49:05.036Z,22.40
2023-04-17T09:50:05.346Z,22.70
2023-04-17T09:51:05.050Z,23.30
2023-04-17T09:52:05.057Z,22.00
2023-04-17T09:53:05.083Z,62.70
2023-04-17T09:54:05.414Z,36.60
2023-04-17T09:55:04.993Z,23.50
2023-04-17T09:56:04.957Z,21.90
2023-04-17T09:57:07.378Z,21.70
2023-04-17T09:58:04.953Z,21.50
2023-04-17T09:59:04.942Z,21.60
2023-04-17T10:00:06.396Z,23.10
2023-04-17T10:01:04.938Z,22.00
2023-04-17T10:02:05.150Z,19.80
2023-04-17T10:03:05.116Z,19.30
2023-04-17T10:04:05.040Z,18.00
2023-04-17T10:05:04.923Z,17.80
2023-04-17T10:06:04.853Z,17.20
2023-04-17T10:07:04.849Z,17.80
2023-04-17T10:08:04.871Z,16.70
2023-04-17T10:09:04.805Z,17.60
2023-04-17T10:10:04.802Z,15.80
2023-04-17T10:11:04.787Z,15.50
2023-04-17T10:12:04.809Z,16.50
2023-04-17T10:13:04.797Z,15.90
2023-04-17T10:14:05.113Z,15.40
2023-04-17T10:15:04.743Z,14.80
2023-04-17T10:16:04.784Z,14.60
2023-04-17T10:17:04.733Z,16.00
2023-04-17T10:18:04.816Z,14.40
2023-04-17T10:19:04.704Z,14.20
2023-04-17T10:20:04.714Z,13.40
2023-04-17T10:21:06.113Z,14.40
2023-04-17T10:22:04.681Z,14.50
2023-04-17T10:23:04.656Z,15.20
2023-04-17T10:24:04.669Z,14.80
2023-04-17T10:25:04.842Z,14.60
2023-04-17T10:26:04.627Z,14.20
2023-04-17T10:27:05.591Z,15.00
2023-04-17T10:28:04.605Z,14.30
2023-04-17T10:29:04.584Z,14.30
2023-04-17T10:30:06.392Z,14.10
2023-04-17T10:31:04.567Z,14.50
2023-04-17T10:32:04.680Z,14.10
2023-04-17T10:33:07.716Z,14.40
2023-04-17T10:34:04.533Z,14.50
2023-04-17T10:35:04.717Z,15.50
2023-04-17T10:36:05.557Z,14.70
2023-04-17T10:37:04.499Z,17.50
2023-04-17T10:38:04.489Z,16.00
2023-04-17T10:39:04.470Z,23.20
2023-04-17T10:40:04.465Z,35.10
2023-04-17T10:41:04.548Z,26.40
2023-04-17T10:42:04.477Z,16.50
2023-04-17T10:43:04.430Z,17.90
2023-04-17T10:44:04.425Z,14.30
2023-04-17T10:45:04.405Z,15.00
2023-04-17T10:46:04.469Z,13.90
2023-04-17T10:47:05.226Z,14.20
2023-04-17T10:48:04.520Z,15.00
2023-04-17T10:49:04.608Z,16.70
2023-04-17T10:50:04.837Z,14.00
2023-04-17T10:51:04.415Z,14.20
2023-04-17T10:52:04.445Z,13.10
2023-04-17T10:53:04.479Z,13.10
2023-04-17T10:54:04.437Z,13.30
2023-04-17T10:55:04.305Z,14.00
2023-04-17T10:56:04.303Z,14.00
2023-04-17T10:57:04.289Z,11.10
2023-04-17T10:58:04.271Z,10.60
2023-04-17T10:59:05.221Z,9.90
2023-04-17T11:00:05.073Z,9.90
2023-04-17T11:01:04.273Z,11.50
2023-04-17T11:02:04.872Z,10.80
2023-04-17T11:03:04.348Z,10.60
2023-04-17T11:04:04.289Z,14.00
2023-04-17T11:05:04.260Z,11.00
2023-04-17T11:06:04.441Z,13.80
2023-04-17T11:07:04.985Z,11.80
2023-04-17T11:08:04.189Z,11.30
2023-04-17T11:09:04.157Z,11.50
2023-04-17T11:10:04.158Z,11.80
2023-04-17T11:11:04.140Z,12.20
2023-04-17T11:12:05.200Z,11.90
2023-04-17T11:13:04.170Z,11.80
2023-04-17T11:14:04.117Z,11.60
2023-04-17T11:15:04.289Z,11.00
2023-04-17T11:16:04.107Z,11.20
2023-04-17T11:17:05.134Z,11.40
2023-04-17T11:18:04.155Z,10.40
2023-04-17T11:19:04.036Z,11.50
2023-04-17T11:20:04.823Z,10.70
2023-04-17T11:21:04.017Z,11.70
2023-04-17T11:22:04.057Z,11.40
2023-04-17T11:23:03.992Z,10.40
2023-04-17T11:24:05.443Z,11.00
2023-04-17T11:25:03.975Z,10.40
2023-04-17T11:26:04.018Z,11.60
2023-04-17T11:27:04.116Z,10.00
2023-04-17T11:28:03.951Z,11.40
2023-04-17T11:29:04.154Z,42.80
2023-04-17T11:30:03.921Z,33.80
2023-04-17T11:31:03.898Z,31.10
2023-04-17T11:32:04.057Z,18.80
2023-04-17T11:33:04.408Z,17.50
2023-04-17T11:34:04.047Z,12.20
2023-04-17T11:35:05.325Z,14.00
2023-04-17T11:36:05.305Z,10.60
2023-04-17T11:37:05.428Z,9.90
2023-04-17T11:38:05.337Z,10.30
2023-04-17T11:39:04.043Z,9.70
2023-04-17T11:40:04.212Z,9.10
2023-04-17T11:41:03.793Z,8.80
2023-04-17T11:42:03.819Z,10.20
2023-04-17T11:43:05.264Z,8.80
2023-04-17T11:44:03.780Z,9.40
2023-04-17T11:45:05.215Z,10.30
2023-04-17T11:46:03.843Z,8.40
2023-04-17T11:47:03.714Z,7.80
2023-04-17T11:48:03.885Z,8.30
2023-04-17T11:49:03.801Z,8.40
2023-04-17T11:50:03.707Z,8.40
2023-04-17T11:51:03.713Z,8.00
2023-04-17T11:52:03.718Z,8.80
2023-04-17T11:53:03.655Z,7.40
2023-04-17T11:54:03.814Z,8.80
2023-04-17T11:55:03.640Z,7.70
2023-04-17T11:56:03.638Z,8.80
2023-04-17T11:57:03.614Z,8.70
2023-04-17T11:58:03.651Z,9.00
2023-04-17T11:59:03.586Z,8.10
2023-04-17T12:00:03.808Z,8.20
2023-04-17T12:01:03.575Z,8.20
2023-04-17T12:02:03.835Z,7.30
2023-04-17T12:03:03.695Z,11.30
2023-04-17T12:04:03.680Z,11.10
2023-04-17T12:05:03.806Z,8.10
2023-04-17T12:06:03.528Z,8.80
2023-04-17T12:07:03.525Z,8.00
2023-04-17T12:08:03.505Z,9.60
2023-04-17T12:09:03.484Z,8.40
2023-04-17T12:10:03.508Z,12.40
2023-04-17T12:11:03.475Z,10.90
2023-04-17T12:12:03.446Z,9.50
2023-04-17T12:13:03.433Z,8.20
2023-04-17T12:14:03.438Z,9.00
2023-04-17T12:15:03.409Z,7.80
2023-04-17T12:16:03.464Z,7.70
2023-04-17T12:17:04.407Z,8.50
2023-04-17T12:18:03.445Z,7.40
2023-04-17T12:19:03.411Z,8.70
2023-04-17T12:20:03.391Z,7.50
2023-04-17T12:21:03.368Z,8.10
2023-04-17T12:22:03.429Z,7.20
2023-04-17T12:23:03.382Z,8.90
2023-04-17T12:24:03.335Z,11.30
2023-04-17T12:25:03.320Z,11.40
2023-04-17T12:26:03.545Z,16.70
2023-04-17T12:27:03.287Z,18.30
2023-04-17T12:28:03.292Z,15.30
2023-04-17T12:29:04.330Z,12.60
2023-04-17T12:30:03.272Z,10.30
2023-04-17T12:31:03.259Z,8.70
2023-04-17T12:32:03.375Z,8.90
2023-04-17T12:33:03.243Z,7.90
2023-04-17T12:34:03.228Z,7.90
2023-04-17T12:35:03.234Z,7.90
2023-04-17T12:36:03.225Z,8.00
2023-04-17T12:37:04.147Z,7.60
2023-04-17T12:38:03.172Z,7.80
2023-04-17T12:39:03.152Z,8.80
2023-04-17T12:40:03.161Z,7.90
2023-04-17T12:41:03.167Z,8.40
2023-04-17T12:42:03.210Z,7.40
2023-04-17T12:43:03.122Z,8.30
2023-04-17T12:44:03.242Z,7.70
2023-04-17T12:45:03.108Z,9.40
2023-04-17T12:46:03.176Z,7.50
2023-04-17T12:47:03.076Z,8.30
2023-04-17T12:48:03.090Z,7.90
2023-04-17T12:49:03.080Z,8.00
2023-04-17T12:50:03.062Z,8.90
2023-04-17T12:51:03.056Z,8.00
2023-04-17T12:52:04.000Z,9.00
2023-04-17T12:53:03.028Z,8.30
2023-04-17T12:54:02.995Z,7.70